Time;durP1;ratioP1;P1;durP2;ratioP2;P2;SDS_P1;SDS_P2;PMS_P1;PMS_P2;Temp;Humidity;BMP_temperature;BMP_pressure;BME280_temperature;BME280_humidity;BME280_pressure;Samples;Min_cycle;Max_cycle;Signal;HPM_P1;HPM_P2
2022/12/21 00:01:27;;;;;;;;;;;16.10;65.50;;;;;;5008971;28;19916;-90
2022/12/21 00:03:54;;;;;;;;;;;16.10;65.40;;;;;;5012919;28;19922;-89
2022/12/21 00:06:21;;;;;;;;;;;16.10;65.50;;;;;;5012747;28;19924;-89
2022/12/21 00:08:48;;;;;;;;;;;16.20;65.50;;;;;;5014374;28;19917;-89
2022/12/21 00:11:13;;;;;;;;;;;16.20;65.50;;;;;;5009116;28;20420;-91
2022/12/21 00:13:39;;;;;;;;;;;16.20;65.60;;;;;;5013819;28;19964;-91
2022/12/21 00:16:07;;;;;;;;;;;16.20;65.60;;;;;;5015041;28;19971;-90
2022/12/21 00:18:36;;;;;;;;;;;16.20;65.70;;;;;;5011115;28;19969;-89
2022/12/21 00:21:03;;;;;;;;;;;16.20;65.60;;;;;;5008591;28;19913;-90
2022/12/21 00:23:29;;;;;;;;;;;16.20;65.50;;;;;;4992085;28;19918;-89
2022/12/21 00:25:54;;;;;;;;;;;16.20;65.40;;;;;;5009037;28;19921;-91
2022/12/21 00:28:20;;;;;;;;;;;16.30;65.40;;;;;;5007269;28;20015;-88
2022/12/21 00:30:45;;;;;;;;;;;16.30;65.50;;;;;;5006222;28;19968;-91
2022/12/21 00:33:11;;;;;;;;;;;16.30;65.40;;;;;;5007477;28;19918;-91
2022/12/21 00:35:36;;;;;;;;;;;16.30;65.50;;;;;;5010039;28;19921;-89
2022/12/21 00:38:02;;;;;;;;;;;16.30;65.40;;;;;;5002341;28;19921;-90
2022/12/21 00:40:27;;;;;;;;;;;16.20;65.40;;;;;;5003124;28;20416;-90
2022/12/21 00:42:53;;;;;;;;;;;16.30;65.40;;;;;;5005128;28;19931;-91
2022/12/21 00:45:18;;;;;;;;;;;16.20;65.50;;;;;;4990610;28;19961;-90
2022/12/21 00:47:44;;;;;;;;;;;16.20;65.60;;;;;;4995799;28;20020;-90
2022/12/21 00:50:09;;;;;;;;;;;16.30;65.50;;;;;;5013097;28;19953;-91
2022/12/21 00:52:35;;;;;;;;;;;16.20;65.50;;;;;;5007280;28;19975;-89
2022/12/21 00:55:00;;;;;;;;;;;16.20;65.50;;;;;;5009054;28;19924;-90
2022/12/21 00:57:27;;;;;;;;;;;16.20;65.50;;;;;;5010233;28;20023;-90
2022/12/21 00:59:52;;;;;;;;;;;16.30;65.50;;;;;;5006125;28;19922;-89
2022/12/21 01:02:18;;;;;;;;;;;16.30;65.50;;;;;;5015360;28;20020;-90
2022/12/21 01:04:43;;;;;;;;;;;16.20;65.50;;;;;;5009265;28;19966;-89
2022/12/21 01:07:09;;;;;;;;;;;16.30;65.50;;;;;;5017062;28;19969;-90
2022/12/21 01:09:34;;;;;;;;;;;16.30;65.50;;;;;;5009911;28;19916;-89
2022/12/21 01:11:59;;;;;;;;;;;16.30;65.40;;;;;;5009740;28;20565;-90
2022/12/21 01:14:25;;;;;;;;;;;16.30;65.40;;;;;;5013803;28;19916;-90
2022/12/21 01:16:50;;;;;;;;;;;16.30;65.30;;;;;;5013075;28;19916;-90
2022/12/21 01:19:16;;;;;;;;;;;16.30;65.40;;;;;;5029677;28;19963;-89
2022/12/21 01:21:42;;;;;;;;;;;16.30;65.30;;;;;;5015544;28;20399;-91
2022/12/21 01:24:10;;;;;;;;;;;16.40;65.30;;;;;;5012847;28;20011;-90
2022/12/21 01:26:35;;;;;;;;;;;16.40;65.30;;;;;;5012871;28;19926;-89
2022/12/21 01:29:01;;;;;;;;;;;16.40;65.20;;;;;;5013589;28;19913;-90
2022/12/21 01:31:26;;;;;;;;;;;16.40;65.30;;;;;;5010280;28;19918;-90
2022/12/21 01:33:52;;;;;;;;;;;16.40;65.30;;;;;;5007154;28;20398;-89
2022/12/21 01:36:18;;;;;;;;;;;16.40;65.40;;;;;;5011905;28;19914;-89
2022/12/21 01:38:44;;;;;;;;;;;16.40;65.20;;;;;;5013713;28;19974;-90
2022/12/21 01:41:12;;;;;;;;;;;16.40;65.20;;;;;;5013903;28;19921;-90
2022/12/21 01:43:40;;;;;;;;;;;16.40;65.20;;;;;;5014580;28;19917;-89
2022/12/21 01:46:17;;;;;;;;;;;16.40;65.20;;;;;;5010886;28;19925;-89
2022/12/21 01:48:44;;;;;;;;;;;16.40;65.20;;;;;;5013612;28;19922;-89
2022/12/21 01:51:10;;;;;;;;;;;16.40;65.20;;;;;;5013496;28;19913;-90
2022/12/21 01:53:38;;;;;;;;;;;16.40;65.30;;;;;;5012227;28;19949;-90
2022/12/21 01:56:05;;;;;;;;;;;16.40;65.20;;;;;;5009182;28;19913;-89
2022/12/21 01:58:32;;;;;;;;;;;16.40;65.30;;;;;;5015616;28;19918;-90
2022/12/21 02:00:58;;;;;;;;;;;16.40;65.40;;;;;;5011032;28;19914;-90
2022/12/21 02:03:26;;;;;;;;;;;16.40;65.40;;;;;;5012084;28;20005;-91
2022/12/21 02:06:01;;;;;;;;;;;16.30;65.30;;;;;;5010897;28;19928;-91
2022/12/21 02:08:27;;;;;;;;;;;16.30;65.30;;;;;;5010367;28;20008;-89
2022/12/21 02:10:53;;;;;;;;;;;16.40;65.30;;;;;;5010446;28;20032;-89
2022/12/21 02:13:18;;;;;;;;;;;16.40;65.30;;;;;;5010822;28;20303;-90
2022/12/21 02:15:43;;;;;;;;;;;16.40;65.30;;;;;;5010658;28;19914;-89
2022/12/21 02:18:28;;;;;;;;;;;16.40;65.20;;;;;;5010181;28;19917;-89
2022/12/21 02:21:17;;;;;;;;;;;16.40;65.30;;;;;;5011233;28;19914;-89
2022/12/21 02:24:02;;;;;;;;;;;16.40;65.30;;;;;;4992090;28;20408;-90
2022/12/21 02:26:46;;;;;;;;;;;16.40;65.40;;;;;;4990703;28;20437;-90
2022/12/21 02:29:30;;;;;;;;;;;16.40;65.30;;;;;;5012525;28;20548;-89
2022/12/21 02:32:02;;;;;;;;;;;16.40;65.30;;;;;;5010656;28;19917;-90
2022/12/21 02:34:40;;;;;;;;;;;16.40;65.20;;;;;;4992788;28;20971;-89
2022/12/21 02:37:23;;;;;;;;;;;16.40;65.30;;;;;;4992722;28;20380;-89
2022/12/21 02:39:58;;;;;;;;;;;16.40;65.30;;;;;;4997498;28;20004;-89
2022/12/21 02:45:30;;;;;;;;;;;16.40;65.40;;;;;;5008560;28;19920;-90
2022/12/21 02:48:00;;;;;;;;;;;16.30;65.30;;;;;;5010375;28;19929;-91
2022/12/21 02:50:32;;;;;;;;;;;16.40;65.30;;;;;;5012462;28;20292;-89
2022/12/21 02:53:04;;;;;;;;;;;16.40;65.30;;;;;;4996245;28;19980;-90
2022/12/21 02:55:29;;;;;;;;;;;16.40;65.30;;;;;;5000530;28;19914;-89
2022/12/21 02:58:11;;;;;;;;;;;16.40;65.30;;;;;;4991094;28;19925;-89
2022/12/21 03:00:38;;;;;;;;;;;16.40;65.20;;;;;;5003414;28;19914;-90
2022/12/21 03:06:07;;;;;;;;;;;16.40;65.20;;;;;;5010834;28;20024;-89
2022/12/21 03:08:47;;;;;;;;;;;16.30;65.30;;;;;;5011398;28;19918;-90
2022/12/21 03:11:13;;;;;;;;;;;16.40;65.20;;;;;;5011347;28;19957;-91
2022/12/21 03:14:02;;;;;;;;;;;16.40;65.20;;;;;;4999729;28;20342;-90
2022/12/21 03:16:33;;;;;;;;;;;16.40;65.20;;;;;;5000405;28;20364;-89
2022/12/21 03:19:15;;;;;;;;;;;16.40;65.20;;;;;;5009772;28;19921;-89
2022/12/21 03:21:58;;;;;;;;;;;16.40;65.10;;;;;;5011219;28;19979;-89
2022/12/21 03:24:39;;;;;;;;;;;16.40;65.20;;;;;;5012752;28;19917;-89
2022/12/21 03:27:10;;;;;;;;;;;16.40;65.20;;;;;;5008365;28;19933;-90
2022/12/21 03:29:39;;;;;;;;;;;16.40;65.30;;;;;;4994544;28;20364;-89
2022/12/21 03:32:13;;;;;;;;;;;16.40;65.20;;;;;;4991074;28;20381;-88
2022/12/21 03:34:40;;;;;;;;;;;16.40;65.20;;;;;;5010217;28;19917;-89
2022/12/21 03:37:09;;;;;;;;;;;16.30;65.00;;;;;;5009887;28;20020;-89
2022/12/21 03:39:37;;;;;;;;;;;16.40;65.10;;;;;;5011769;28;20344;-89
2022/12/21 03:42:06;;;;;;;;;;;16.30;65.00;;;;;;5008391;28;20407;-90
2022/12/21 03:44:40;;;;;;;;;;;16.30;65.00;;;;;;5011114;28;20327;-88
2022/12/21 03:47:12;;;;;;;;;;;16.30;65.10;;;;;;5013277;28;19980;-88
2022/12/21 03:49:40;;;;;;;;;;;16.30;65.10;;;;;;5009524;28;20035;-91
2022/12/21 03:52:17;;;;;;;;;;;16.30;65.00;;;;;;4988978;28;20285;-91
2022/12/21 03:54:42;;;;;;;;;;;16.20;65.00;;;;;;4998282;28;20327;-89
2022/12/21 03:57:09;;;;;;;;;;;16.20;65.00;;;;;;5011844;28;19917;-91
2022/12/21 03:59:36;;;;;;;;;;;16.20;65.00;;;;;;5010763;28;19917;-89
2022/12/21 04:02:06;;;;;;;;;;;16.20;65.10;;;;;;5000720;28;20290;-90
2022/12/21 04:04:50;;;;;;;;;;;16.20;65.10;;;;;;4990112;28;20438;-89
2022/12/21 04:07:17;;;;;;;;;;;16.20;65.10;;;;;;5006163;28;20024;-89
2022/12/21 04:09:42;;;;;;;;;;;16.10;65.10;;;;;;5013371;28;20001;-89
2022/12/21 04:14:55;;;;;;;;;;;16.20;65.00;;;;;;4996284;28;19920;-88
2022/12/21 04:17:21;;;;;;;;;;;16.10;65.10;;;;;;5013006;28;20284;-89
2022/12/21 04:19:58;;;;;;;;;;;16.10;65.00;;;;;;5010622;28;20288;-89
2022/12/21 04:28:09;;;;;;;;;;;16.00;65.10;;;;;;4991736;28;20207;-90
2022/12/21 04:30:35;;;;;;;;;;;16.00;65.00;;;;;;5005748;28;20045;-89
2022/12/21 04:33:01;;;;;;;;;;;16.00;65.20;;;;;;5020733;28;20008;-89
2022/12/21 04:35:26;;;;;;;;;;;16.00;65.00;;;;;;5009240;28;19910;-91
2022/12/21 04:37:52;;;;;;;;;;;16.00;65.00;;;;;;5008741;28;20316;-89
2022/12/21 04:40:17;;;;;;;;;;;15.90;65.00;;;;;;5010740;28;20012;-91
2022/12/21 04:42:43;;;;;;;;;;;15.90;65.00;;;;;;5008848;28;19929;-90
2022/12/21 04:45:09;;;;;;;;;;;15.80;65.10;;;;;;5009715;28;19920;-91
2022/12/21 04:47:34;;;;;;;;;;;15.80;65.10;;;;;;5012119;28;19975;-90
2022/12/21 04:50:00;;;;;;;;;;;15.80;65.20;;;;;;5012984;28;20635;-89
2022/12/21 04:52:25;;;;;;;;;;;15.80;65.20;;;;;;5002623;28;19922;-89
2022/12/21 04:54:51;;;;;;;;;;;15.80;65.20;;;;;;5004012;28;19976;-91
2022/12/21 04:57:17;;;;;;;;;;;15.80;65.30;;;;;;5013096;28;19969;-89
2022/12/21 04:59:44;;;;;;;;;;;15.90;65.40;;;;;;5014321;28;19913;-90
2022/12/21 05:02:10;;;;;;;;;;;15.90;65.40;;;;;;5013251;28;19917;-90
2022/12/21 05:04:35;;;;;;;;;;;16.00;65.50;;;;;;4998458;28;19914;-90
2022/12/21 05:07:01;;;;;;;;;;;16.00;65.30;;;;;;5007962;28;19929;-89
2022/12/21 05:09:26;;;;;;;;;;;16.00;65.30;;;;;;5014221;28;19924;-90
2022/12/21 05:11:52;;;;;;;;;;;16.00;65.20;;;;;;5014345;28;21056;-89
2022/12/21 05:14:18;;;;;;;;;;;16.00;65.20;;;;;;5012242;28;19939;-90
2022/12/21 05:16:43;;;;;;;;;;;16.00;65.10;;;;;;5011247;28;19913;-89
2022/12/21 05:19:09;;;;;;;;;;;16.00;65.20;;;;;;5012852;28;20044;-89
2022/12/21 05:21:34;;;;;;;;;;;16.00;65.10;;;;;;5012737;28;19995;-90
2022/12/21 05:24:00;;;;;;;;;;;16.00;65.00;;;;;;5000061;28;19948;-90
2022/12/21 05:26:25;;;;;;;;;;;16.00;65.00;;;;;;5008563;28;20394;-90
2022/12/21 05:28:51;;;;;;;;;;;16.10;65.00;;;;;;5015098;28;19941;-90
2022/12/21 05:31:16;;;;;;;;;;;16.00;65.00;;;;;;5010891;28;20345;-90
2022/12/21 05:33:42;;;;;;;;;;;16.00;64.90;;;;;;5014701;28;19925;-90
2022/12/21 05:36:09;;;;;;;;;;;16.00;64.90;;;;;;5005779;28;20383;-90
2022/12/21 05:38:35;;;;;;;;;;;16.10;64.90;;;;;;5013247;28;20317;-90
2022/12/21 05:41:01;;;;;;;;;;;16.10;65.00;;;;;;5017868;28;19937;-90
2022/12/21 05:43:26;;;;;;;;;;;16.10;65.00;;;;;;5004331;28;19922;-89
2022/12/21 05:45:52;;;;;;;;;;;16.10;65.00;;;;;;5008468;28;20750;-90
2022/12/21 05:48:18;;;;;;;;;;;16.10;65.10;;;;;;5005650;28;19917;-91
2022/12/21 05:50:43;;;;;;;;;;;16.10;65.00;;;;;;5007657;28;19913;-90
2022/12/21 05:53:09;;;;;;;;;;;16.10;65.00;;;;;;5012154;28;20079;-90
2022/12/21 05:55:35;;;;;;;;;;;16.10;64.80;;;;;;5012873;28;19952;-90
2022/12/21 05:58:00;;;;;;;;;;;16.00;64.90;;;;;;5015370;28;19939;-89
2022/12/21 06:00:26;;;;;;;;;;;16.00;64.70;;;;;;5011648;28;19914;-90
2022/12/21 06:02:51;;;;;;;;;;;16.00;64.80;;;;;;5013863;28;19917;-90
2022/12/21 06:05:17;;;;;;;;;;;16.00;64.80;;;;;;5002912;28;19913;-89
2022/12/21 06:07:42;;;;;;;;;;;16.00;64.90;;;;;;4997657;28;19965;-90
2022/12/21 06:10:08;;;;;;;;;;;16.00;65.00;;;;;;5024653;28;19909;-90
2022/12/21 06:12:33;;;;;;;;;;;16.00;65.00;;;;;;5011219;28;19926;-88
2022/12/21 06:14:59;;;;;;;;;;;16.00;64.90;;;;;;5007507;28;19920;-89
2022/12/21 06:17:28;;;;;;;;;;;15.90;64.90;;;;;;5001977;28;19941;-90
2022/12/21 06:19:54;;;;;;;;;;;15.90;64.90;;;;;;5010677;28;19940;-89
2022/12/21 06:22:19;;;;;;;;;;;15.80;64.90;;;;;;5009390;28;20004;-89
2022/12/21 06:24:45;;;;;;;;;;;15.80;64.90;;;;;;5012095;28;19914;-89
2022/12/21 06:27:10;;;;;;;;;;;15.80;65.00;;;;;;5012110;28;19967;-90
2022/12/21 06:29:36;;;;;;;;;;;15.70;65.00;;;;;;5012445;28;20034;-90
2022/12/21 06:32:01;;;;;;;;;;;15.80;65.10;;;;;;5009273;28;20562;-88
2022/12/21 06:34:27;;;;;;;;;;;15.70;65.10;;;;;;4995779;28;19921;-90
2022/12/21 06:36:52;;;;;;;;;;;15.80;65.10;;;;;;5001313;28;20046;-90
2022/12/21 06:39:18;;;;;;;;;;;15.70;65.20;;;;;;5017070;28;19913;-89
2022/12/21 06:41:43;;;;;;;;;;;15.70;65.30;;;;;;5013557;28;19918;-89
2022/12/21 06:44:09;;;;;;;;;;;15.70;65.20;;;;;;5003226;28;19983;-90
2022/12/21 06:46:34;;;;;;;;;;;15.60;65.20;;;;;;5011110;28;19926;-89
2022/12/21 06:48:59;;;;;;;;;;;15.50;65.40;;;;;;5010874;28;20413;-88
2022/12/21 06:51:25;;;;;;;;;;;15.50;65.30;;;;;;5009376;28;20340;-89
2022/12/21 06:53:52;;;;;;;;;;;15.50;65.40;;;;;;5008627;28;19943;-88
2022/12/21 06:56:19;;;;;;;;;;;15.50;65.40;;;;;;5009144;28;19984;-89
2022/12/21 06:58:45;;;;;;;;;;;15.40;65.40;;;;;;5014387;28;19997;-91
2022/12/21 07:01:12;;;;;;;;;;;15.40;65.30;;;;;;5017275;28;19914;-89
2022/12/21 07:03:37;;;;;;;;;;;15.40;65.20;;;;;;5010680;28;19918;-88
2022/12/21 07:06:03;;;;;;;;;;;15.30;65.20;;;;;;5007604;28;20016;-89
2022/12/21 07:08:29;;;;;;;;;;;15.30;65.30;;;;;;5011263;28;19948;-88
2022/12/21 07:10:59;;;;;;;;;;;15.40;65.40;;;;;;5010177;28;19917;-89
2022/12/21 07:13:25;;;;;;;;;;;15.30;65.40;;;;;;5007932;28;19917;-89
2022/12/21 07:15:50;;;;;;;;;;;15.40;65.40;;;;;;5010364;28;19917;-88
2022/12/21 07:18:16;;;;;;;;;;;15.40;65.40;;;;;;5002270;28;19918;-89
2022/12/21 07:20:41;;;;;;;;;;;15.40;65.50;;;;;;5003651;28;20051;-90
2022/12/21 07:23:07;;;;;;;;;;;15.40;65.40;;;;;;5008518;28;19956;-89
2022/12/21 07:25:32;;;;;;;;;;;15.50;65.40;;;;;;5010372;28;20019;-90
2022/12/21 07:27:58;;;;;;;;;;;15.50;65.40;;;;;;5009675;28;20055;-89
2022/12/21 07:30:24;;;;;;;;;;;15.50;65.30;;;;;;5008913;28;19917;-89
2022/12/21 07:32:52;;;;;;;;;;;15.60;65.40;;;;;;5006273;28;19926;-88
2022/12/21 07:35:17;;;;;;;;;;;15.60;65.40;;;;;;4998871;28;19914;-88
2022/12/21 07:37:43;;;;;;;;;;;15.70;65.50;;;;;;4994199;28;19937;-88
2022/12/21 07:40:09;;;;;;;;;;;15.70;65.50;;;;;;5008445;28;20369;-88
2022/12/21 07:42:35;;;;;;;;;;;15.70;65.40;;;;;;5002336;28;20285;-88
2022/12/21 07:45:01;;;;;;;;;;;15.80;65.40;;;;;;5008545;28;19913;-89
2022/12/21 07:47:26;;;;;;;;;;;15.70;65.40;;;;;;5005961;28;19926;-89
2022/12/21 07:49:52;;;;;;;;;;;15.70;65.30;;;;;;5023881;28;19917;-90
2022/12/21 07:52:18;;;;;;;;;;;15.80;65.30;;;;;;5008053;28;19965;-88
2022/12/21 07:54:43;;;;;;;;;;;15.80;65.30;;;;;;5014063;28;19917;-89
2022/12/21 07:57:09;;;;;;;;;;;15.80;65.30;;;;;;4995020;28;20278;-89
2022/12/21 07:59:34;;;;;;;;;;;15.80;65.30;;;;;;4995949;28;20357;-88
2022/12/21 08:01:59;;;;;;;;;;;15.80;65.30;;;;;;5009491;28;19918;-89
2022/12/21 08:04:25;;;;;;;;;;;16.00;65.40;;;;;;4991224;28;19922;-88
2022/12/21 08:06:50;;;;;;;;;;;16.00;65.30;;;;;;5000414;28;19921;-89
2022/12/21 08:09:16;;;;;;;;;;;16.00;65.10;;;;;;5002449;28;20285;-90
2022/12/21 08:11:41;;;;;;;;;;;16.00;65.10;;;;;;4998538;28;20452;-89
2022/12/21 08:14:07;;;;;;;;;;;16.00;65.00;;;;;;4996964;28;19922;-90
2022/12/21 08:16:32;;;;;;;;;;;16.00;65.00;;;;;;4996905;28;19917;-89
2022/12/21 08:18:57;;;;;;;;;;;16.00;65.00;;;;;;5003211;28;20020;-90
2022/12/21 08:21:23;;;;;;;;;;;16.00;64.80;;;;;;5005971;28;19961;-91
2022/12/21 08:23:49;;;;;;;;;;;16.00;64.80;;;;;;5006972;28;20284;-92
2022/12/21 08:26:14;;;;;;;;;;;16.00;64.80;;;;;;5000873;28;19933;-93
2022/12/21 08:28:40;;;;;;;;;;;16.00;64.90;;;;;;5006306;28;20312;-93
2022/12/21 08:31:09;;;;;;;;;;;16.00;64.90;;;;;;5010027;28;20394;-92
2022/12/21 08:33:35;;;;;;;;;;;16.00;64.90;;;;;;5008979;28;20083;-91
2022/12/21 08:36:00;;;;;;;;;;;16.00;64.90;;;;;;5005839;28;20477;-91
2022/12/21 08:38:26;;;;;;;;;;;16.10;65.00;;;;;;5023755;28;19925;-92
2022/12/21 08:40:52;;;;;;;;;;;16.10;65.00;;;;;;5005049;28;19928;-91
2022/12/21 08:43:19;;;;;;;;;;;16.10;65.00;;;;;;5017201;28;20448;-90
2022/12/21 08:45:46;;;;;;;;;;;16.20;65.00;;;;;;5016530;28;20384;-91
2022/12/21 08:48:15;;;;;;;;;;;16.20;65.00;;;;;;5006212;28;19989;-93
2022/12/21 08:50:44;;;;;;;;;;;16.20;65.00;;;;;;5009577;28;19917;-90
2022/12/21 08:53:12;;;;;;;;;;;16.20;65.00;;;;;;5009760;28;19944;-90
2022/12/21 08:55:38;;;;;;;;;;;16.30;65.10;;;;;;5008841;28;20030;-92
2022/12/21 08:58:03;;;;;;;;;;;16.30;64.90;;;;;;5007425;28;19960;-91
2022/12/21 09:00:29;;;;;;;;;;;16.30;64.80;;;;;;5008511;28;19924;-90
2022/12/21 09:02:55;;;;;;;;;;;16.30;64.90;;;;;;5006250;28;19961;-91
2022/12/21 09:05:21;;;;;;;;;;;16.30;65.00;;;;;;5009787;28;19953;-91
2022/12/21 09:07:46;;;;;;;;;;;16.30;65.10;;;;;;5005946;28;19925;-91
2022/12/21 09:10:13;;;;;;;;;;;16.40;65.10;;;;;;5008654;28;19917;-91
2022/12/21 09:12:38;;;;;;;;;;;16.40;65.10;;;;;;5003995;28;19921;-90
2022/12/21 09:15:05;;;;;;;;;;;16.40;65.20;;;;;;5008356;28;19918;-89
2022/12/21 09:17:30;;;;;;;;;;;16.40;65.10;;;;;;5001832;28;19917;-93
2022/12/21 09:19:56;;;;;;;;;;;16.50;65.10;;;;;;5003515;28;19924;-92
2022/12/21 09:22:23;;;;;;;;;;;16.50;65.10;;;;;;5010544;28;19972;-92
2022/12/21 09:24:51;;;;;;;;;;;16.50;65.10;;;;;;5008719;28;19925;-92
2022/12/21 09:27:17;;;;;;;;;;;16.60;65.10;;;;;;5014289;28;19929;-91
2022/12/21 09:29:46;;;;;;;;;;;16.50;65.10;;;;;;5010258;28;20000;-90
2022/12/21 09:32:11;;;;;;;;;;;16.50;65.10;;;;;;5003822;28;20373;-92
2022/12/21 09:34:37;;;;;;;;;;;16.60;65.00;;;;;;5007028;28;20011;-92
2022/12/21 09:37:02;;;;;;;;;;;16.60;65.10;;;;;;5008363;28;19954;-93
2022/12/21 09:39:28;;;;;;;;;;;16.60;65.10;;;;;;5021562;28;19932;-93
2022/12/21 09:42:00;;;;;;;;;;;16.60;65.20;;;;;;5009478;28;19922;-94
2022/12/21 09:44:38;;;;;;;;;;;16.70;65.30;;;;;;5009811;28;20272;-92
2022/12/21 09:47:06;;;;;;;;;;;16.70;65.40;;;;;;4997948;28;20373;-91
2022/12/21 09:49:38;;;;;;;;;;;16.70;65.40;;;;;;5006957;28;20277;-94
2022/12/21 09:52:06;;;;;;;;;;;16.70;64.90;;;;;;5013686;28;19949;-93
2022/12/21 09:55:00;;;;;;;;;;;16.60;65.10;;;;;;5013104;28;20380;-92
2022/12/21 09:57:29;;;;;;;;;;;16.60;65.10;;;;;;4945470;28;20315;-93
2022/12/21 09:59:55;;;;;;;;;;;16.50;65.20;;;;;;5001962;28;19921;-92
2022/12/21 10:02:24;;;;;;;;;;;16.50;65.20;;;;;;5022055;28;19922;-92
2022/12/21 10:04:57;;;;;;;;;;;16.40;65.30;;;;;;5005514;28;19949;-92
2022/12/21 10:07:34;;;;;;;;;;;16.40;65.40;;;;;;5008976;28;20451;-91
2022/12/21 10:10:06;;;;;;;;;;;16.40;65.70;;;;;;5008898;28;19914;-92
2022/12/21 10:12:32;;;;;;;;;;;16.40;65.40;;;;;;5000771;28;19949;-92
2022/12/21 10:15:00;;;;;;;;;;;16.40;65.10;;;;;;5005823;28;19913;-91
2022/12/21 10:17:35;;;;;;;;;;;16.40;64.80;;;;;;5006517;28;20016;-90
2022/12/21 10:20:20;;;;;;;;;;;16.30;64.60;;;;;;5004841;28;19917;-91
2022/12/21 10:22:47;;;;;;;;;;;16.30;64.70;;;;;;5015825;28;19921;-92
2022/12/21 10:25:23;;;;;;;;;;;16.30;64.90;;;;;;5004496;28;19913;-92
2022/12/21 10:27:56;;;;;;;;;;;16.30;65.10;;;;;;5010094;28;19936;-91
2022/12/21 10:30:22;;;;;;;;;;;16.30;65.10;;;;;;5009543;28;19913;-92
2022/12/21 10:32:48;;;;;;;;;;;16.50;65.30;;;;;;5005249;28;20364;-91
2022/12/21 10:35:17;;;;;;;;;;;16.60;65.50;;;;;;4998641;28;19964;-93
2022/12/21 10:37:50;;;;;;;;;;;16.70;65.70;;;;;;5003212;28;19930;-91
2022/12/21 10:40:20;;;;;;;;;;;16.80;65.70;;;;;;5004614;28;19917;-93
2022/12/21 10:42:52;;;;;;;;;;;16.90;65.40;;;;;;5007475;28;19925;-91
2022/12/21 10:45:19;;;;;;;;;;;17.00;65.40;;;;;;5003592;28;19949;-91
2022/12/21 10:47:45;;;;;;;;;;;17.10;65.30;;;;;;4998522;28;19929;-91
2022/12/21 10:50:10;;;;;;;;;;;17.20;65.20;;;;;;4981473;28;19922;-93
2022/12/21 10:52:38;;;;;;;;;;;17.20;65.00;;;;;;5005386;28;19936;-92
2022/12/21 10:55:05;;;;;;;;;;;17.20;64.80;;;;;;5003806;28;19969;-93
2022/12/21 10:57:36;;;;;;;;;;;17.20;64.60;;;;;;5006707;28;20528;-91
2022/12/21 11:00:03;;;;;;;;;;;17.20;64.50;;;;;;4998574;28;19918;-92
2022/12/21 11:02:42;;;;;;;;;;;17.20;64.50;;;;;;5002539;28;20287;-91
2022/12/21 11:05:46;;;;;;;;;;;17.20;64.60;;;;;;5014740;28;20355;-92
2022/12/21 11:08:28;;;;;;;;;;;17.10;64.80;;;;;;4929270;29;19931;-90
2022/12/21 11:10:56;;;;;;;;;;;17.20;64.80;;;;;;4930556;29;19919;-90
2022/12/21 11:13:24;;;;;;;;;;;17.20;64.70;;;;;;4979109;28;20083;-92
2022/12/21 11:16:00;;;;;;;;;;;17.20;64.50;;;;;;5018726;28;19909;-91
2022/12/21 11:18:32;;;;;;;;;;;17.10;64.20;;;;;;5022627;28;19974;-90
2022/12/21 11:20:58;;;;;;;;;;;17.00;64.40;;;;;;5003927;28;19928;-92
2022/12/21 11:23:28;;;;;;;;;;;16.90;64.70;;;;;;5001432;28;19925;-91
2022/12/21 11:25:57;;;;;;;;;;;16.80;64.60;;;;;;5006874;28;19921;-93
2022/12/21 11:28:23;;;;;;;;;;;16.70;64.30;;;;;;5001975;28;19996;-91
2022/12/21 11:30:51;;;;;;;;;;;16.60;64.30;;;;;;5002969;28;19921;-93
2022/12/21 11:33:17;;;;;;;;;;;16.50;64.40;;;;;;4997376;28;19925;-93
2022/12/21 11:36:03;;;;;;;;;;;16.50;64.50;;;;;;5006520;28;19922;-94
2022/12/21 11:38:33;;;;;;;;;;;16.50;64.50;;;;;;5001848;28;20380;-93
2022/12/21 11:40:59;;;;;;;;;;;16.50;64.80;;;;;;5004268;28;19917;-91
2022/12/21 11:43:24;;;;;;;;;;;16.50;65.10;;;;;;4999995;28;19929;-92
2022/12/21 11:45:59;;;;;;;;;;;16.60;65.30;;;;;;5009191;28;20277;-92
2022/12/21 11:48:57;;;;;;;;;;;16.60;65.30;;;;;;5005140;28;20458;-92
2022/12/21 11:51:33;;;;;;;;;;;16.70;65.20;;;;;;4955324;28;19922;-92
2022/12/21 11:54:12;;;;;;;;;;;16.60;64.90;;;;;;5004141;28;19921;-92
2022/12/21 11:57:05;;;;;;;;;;;16.70;64.80;;;;;;5006615;28;19913;-92
2022/12/21 11:59:36;;;;;;;;;;;16.60;64.80;;;;;;5000698;28;19929;-91
2022/12/21 12:02:24;;;;;;;;;;;16.60;64.80;;;;;;5004151;28;19921;-91
2022/12/21 12:04:55;;;;;;;;;;;16.60;65.00;;;;;;5000259;28;19984;-91
2022/12/21 12:07:24;;;;;;;;;;;16.60;65.10;;;;;;5000265;28;19925;-91
2022/12/21 12:10:08;;;;;;;;;;;16.50;64.90;;;;;;5002587;28;19921;-90
2022/12/21 12:12:34;;;;;;;;;;;16.50;65.20;;;;;;5005326;28;19921;-91
2022/12/21 12:15:08;;;;;;;;;;;16.50;65.30;;;;;;5000499;28;20384;-91
2022/12/21 12:17:37;;;;;;;;;;;16.50;65.10;;;;;;5006155;28;20028;-92
2022/12/21 12:20:12;;;;;;;;;;;16.40;64.70;;;;;;4998873;28;19928;-91
2022/12/21 12:22:56;;;;;;;;;;;16.40;64.50;;;;;;5003497;28;20004;-91
2022/12/21 12:25:36;;;;;;;;;;;16.30;64.50;;;;;;5007749;28;19918;-91
2022/12/21 12:28:01;;;;;;;;;;;16.30;64.50;;;;;;5001890;28;19932;-91
2022/12/21 12:30:35;;;;;;;;;;;16.30;64.60;;;;;;4990498;28;19926;-90
2022/12/21 12:33:06;;;;;;;;;;;16.30;65.00;;;;;;4985828;28;19957;-90
2022/12/21 12:35:37;;;;;;;;;;;16.40;64.90;;;;;;4988154;28;20354;-92
2022/12/21 12:38:03;;;;;;;;;;;16.50;64.80;;;;;;4991706;28;19922;-91
2022/12/21 12:40:47;;;;;;;;;;;16.50;64.70;;;;;;4997414;28;19928;-91
2022/12/21 12:43:33;;;;;;;;;;;16.60;64.60;;;;;;5014487;28;19976;-90
2022/12/21 12:46:11;;;;;;;;;;;16.70;64.80;;;;;;4989574;28;20020;-90
2022/12/21 12:48:43;;;;;;;;;;;16.70;64.60;;;;;;4989149;28;20021;-89
2022/12/21 12:51:25;;;;;;;;;;;16.70;64.30;;;;;;4985955;28;19918;-90
2022/12/21 12:54:10;;;;;;;;;;;16.70;64.00;;;;;;4993394;28;20405;-90
2022/12/21 12:56:42;;;;;;;;;;;16.70;63.90;;;;;;4990546;28;19922;-91
2022/12/21 12:59:14;;;;;;;;;;;16.60;64.10;;;;;;4997357;28;19922;-90
2022/12/21 13:01:50;;;;;;;;;;;16.60;64.00;;;;;;5003822;28;19918;-91
2022/12/21 13:04:19;;;;;;;;;;;16.70;64.10;;;;;;5001209;28;19921;-89
2022/12/21 13:06:51;;;;;;;;;;;16.60;63.90;;;;;;5002753;28;19929;-91
2022/12/21 13:09:40;;;;;;;;;;;16.60;63.90;;;;;;5005302;28;20459;-91
2022/12/21 13:12:20;;;;;;;;;;;16.50;63.80;;;;;;5005693;28;19917;-91
2022/12/21 13:14:49;;;;;;;;;;;16.50;64.00;;;;;;5006236;28;19922;-91
2022/12/21 13:17:14;;;;;;;;;;;16.50;63.90;;;;;;4999097;28;20022;-91
2022/12/21 13:19:41;;;;;;;;;;;16.50;64.00;;;;;;5006410;28;20495;-91
2022/12/21 13:22:10;;;;;;;;;;;16.40;63.90;;;;;;5004693;28;20396;-91
2022/12/21 13:24:47;;;;;;;;;;;16.40;63.90;;;;;;5006564;28;20895;-93
2022/12/21 13:27:20;;;;;;;;;;;16.40;64.00;;;;;;5022923;28;19936;-90
2022/12/21 13:30:11;;;;;;;;;;;16.40;64.00;;;;;;5002939;28;19921;-91
2022/12/21 13:32:38;;;;;;;;;;;16.40;63.90;;;;;;5000859;28;20369;-91
2022/12/21 13:35:10;;;;;;;;;;;16.30;64.00;;;;;;5012130;28;19932;-90
2022/12/21 13:37:36;;;;;;;;;;;16.30;64.00;;;;;;5008367;28;19918;-92
2022/12/21 13:40:28;;;;;;;;;;;16.30;64.20;;;;;;5007438;28;19972;-91
2022/12/21 13:42:57;;;;;;;;;;;16.30;64.00;;;;;;4976571;28;20000;-91
2022/12/21 13:45:39;;;;;;;;;;;16.30;63.90;;;;;;5005400;28;19957;-91
2022/12/21 13:48:09;;;;;;;;;;;16.20;63.60;;;;;;4999788;28;19929;-91
2022/12/21 13:50:39;;;;;;;;;;;16.20;63.40;;;;;;5006031;28;19928;-91
2022/12/21 13:53:13;;;;;;;;;;;16.20;63.30;;;;;;5007824;28;20029;-91
2022/12/21 13:55:56;;;;;;;;;;;16.10;63.40;;;;;;5004952;28;19925;-91
2022/12/21 13:58:40;;;;;;;;;;;16.00;63.40;;;;;;5006361;28;19917;-90
2022/12/21 14:01:16;;;;;;;;;;;16.00;63.60;;;;;;5006829;28;19952;-90
2022/12/21 14:03:51;;;;;;;;;;;15.90;63.60;;;;;;4997109;28;19914;-92
2022/12/21 14:06:16;;;;;;;;;;;15.90;63.50;;;;;;5003131;28;19937;-90
2022/12/21 14:09:03;;;;;;;;;;;15.80;63.60;;;;;;5006933;28;19944;-89
2022/12/21 14:11:28;;;;;;;;;;;15.80;63.50;;;;;;4994820;28;19979;-90
2022/12/21 14:14:26;;;;;;;;;;;15.70;63.50;;;;;;5007372;28;19925;-92
2022/12/21 14:17:11;;;;;;;;;;;15.70;63.60;;;;;;4952605;28;20580;-90
2022/12/21 14:19:36;;;;;;;;;;;15.60;63.80;;;;;;5001059;28;19921;-91
2022/12/21 14:22:02;;;;;;;;;;;15.60;63.90;;;;;;5004363;28;19918;-92
2022/12/21 14:24:32;;;;;;;;;;;15.60;63.90;;;;;;5002034;28;19922;-90
2022/12/21 14:26:57;;;;;;;;;;;15.60;63.80;;;;;;5007359;28;20405;-90
2022/12/21 14:29:34;;;;;;;;;;;15.50;63.80;;;;;;5001458;28;19949;-91
2022/12/21 14:32:20;;;;;;;;;;;15.50;63.70;;;;;;5005318;28;20451;-91
2022/12/21 14:34:50;;;;;;;;;;;15.50;63.80;;;;;;5005539;28;20005;-92
2022/12/21 14:37:16;;;;;;;;;;;15.40;63.90;;;;;;5006395;28;19968;-91
2022/12/21 14:39:45;;;;;;;;;;;15.40;63.80;;;;;;5000454;28;20021;-89
2022/12/21 14:42:29;;;;;;;;;;;15.40;63.80;;;;;;5022476;28;19917;-89
2022/12/21 14:45:10;;;;;;;;;;;15.30;63.80;;;;;;5006389;28;19921;-91